sensor_id;sensor_type;location;lat;lon;timestamp;P1;durP1;ratioP1;P2;durP2;ratioP2
16922;SDS011;8578;50.938;13.556;2023-02-28T00:00:55;4.67;;;2.50;;
16922;SDS011;8578;50.938;13.556;2023-02-28T00:03:23;2.80;;;1.67;;
16922;SDS011;8578;50.938;13.556;2023-02-28T00:05:52;3.50;;;1.87;;
16922;SDS011;8578;50.938;13.556;2023-02-28T00:08:20;4.50;;;1.80;;
16922;SDS011;8578;50.938;13.556;2023-02-28T00:10:48;3.50;;;1.67;;
16922;SDS011;8578;50.938;13.556;2023-02-28T00:13:15;4.57;;;1.80;;
16922;SDS011;8578;50.938;13.556;2023-02-28T00:15:43;3.87;;;2.03;;
16922;SDS011;8578;50.938;13.556;2023-02-28T00:18:11;2.87;;;2.00;;
16922;SDS011;8578;50.938;13.556;2023-02-28T00:20:40;3.63;;;1.80;;
16922;SDS011;8578;50.938;13.556;2023-02-28T00:23:08;3.20;;;1.70;;
16922;SDS011;8578;50.938;13.556;2023-02-28T00:25:37;4.37;;;1.63;;
16922;SDS011;8578;50.938;13.556;2023-02-28T00:28:04;3.63;;;1.93;;
16922;SDS011;8578;50.938;13.556;2023-02-28T00:30:31;3.27;;;1.80;;
16922;SDS011;8578;50.938;13.556;2023-02-28T00:33:03;3.10;;;2.13;;
16922;SDS011;8578;50.938;13.556;2023-02-28T00:35:31;3.20;;;1.67;;
16922;SDS011;8578;50.938;13.556;2023-02-28T00:37:59;4.37;;;1.90;;
16922;SDS011;8578;50.938;13.556;2023-02-28T00:40:28;2.90;;;1.77;;
16922;SDS011;8578;50.938;13.556;2023-02-28T00:42:56;5.13;;;2.37;;
16922;SDS011;8578;50.938;13.556;2023-02-28T00:45:23;5.90;;;1.90;;
16922;SDS011;8578;50.938;13.556;2023-02-28T00:47:51;4.00;;;1.90;;
16922;SDS011;8578;50.938;13.556;2023-02-28T00:50:19;2.90;;;1.73;;
16922;SDS011;8578;50.938;13.556;2023-02-28T00:52:47;2.60;;;1.67;;
16922;SDS011;8578;50.938;13.556;2023-02-28T00:55:15;4.30;;;2.00;;
16922;SDS011;8578;50.938;13.556;2023-02-28T00:57:43;3.90;;;2.07;;
16922;SDS011;8578;50.938;13.556;2023-02-28T01:00:11;3.60;;;1.97;;
16922;SDS011;8578;50.938;13.556;2023-02-28T01:02:39;3.77;;;1.93;;
16922;SDS011;8578;50.938;13.556;2023-02-28T01:05:07;4.40;;;2.30;;
16922;SDS011;8578;50.938;13.556;2023-02-28T01:07:35;3.43;;;2.07;;
16922;SDS011;8578;50.938;13.556;2023-02-28T01:10:03;4.23;;;2.10;;
16922;SDS011;8578;50.938;13.556;2023-02-28T01:12:30;3.47;;;2.00;;
16922;SDS011;8578;50.938;13.556;2023-02-28T01:15:00;4.97;;;2.00;;
16922;SDS011;8578;50.938;13.556;2023-02-28T01:17:28;5.47;;;2.20;;
16922;SDS011;8578;50.938;13.556;2023-02-28T01:19:59;5.03;;;2.17;;
16922;SDS011;8578;50.938;13.556;2023-02-28T01:22:27;5.03;;;2.40;;
16922;SDS011;8578;50.938;13.556;2023-02-28T01:24:54;4.70;;;2.47;;
16922;SDS011;8578;50.938;13.556;2023-02-28T01:27:21;4.17;;;2.50;;
16922;SDS011;8578;50.938;13.556;2023-02-28T01:29:51;4.83;;;2.10;;
16922;SDS011;8578;50.938;13.556;2023-02-28T01:32:21;4.87;;;2.17;;
16922;SDS011;8578;50.938;13.556;2023-02-28T01:34:49;3.30;;;2.20;;
16922;SDS011;8578;50.938;13.556;2023-02-28T01:37:16;4.13;;;2.20;;
16922;SDS011;8578;50.938;13.556;2023-02-28T01:39:44;4.63;;;2.57;;
16922;SDS011;8578;50.938;13.556;2023-02-28T01:42:11;3.70;;;2.13;;
16922;SDS011;8578;50.938;13.556;2023-02-28T01:45:03;3.53;;;1.97;;
16922;SDS011;8578;50.938;13.556;2023-02-28T01:47:36;5.83;;;2.47;;
16922;SDS011;8578;50.938;13.556;2023-02-28T01:50:06;4.33;;;2.20;;
16922;SDS011;8578;50.938;13.556;2023-02-28T01:52:34;4.70;;;2.23;;
16922;SDS011;8578;50.938;13.556;2023-02-28T01:55:02;4.40;;;2.10;;
16922;SDS011;8578;50.938;13.556;2023-02-28T01:57:32;4.40;;;2.50;;
16922;SDS011;8578;50.938;13.556;2023-02-28T02:00:05;4.87;;;2.40;;
16922;SDS011;8578;50.938;13.556;2023-02-28T02:02:39;3.53;;;2.13;;
16922;SDS011;8578;50.938;13.556;2023-02-28T02:05:10;3.43;;;2.10;;
16922;SDS011;8578;50.938;13.556;2023-02-28T02:07:39;4.13;;;2.30;;
16922;SDS011;8578;50.938;13.556;2023-02-28T02:10:10;3.27;;;2.20;;
16922;SDS011;8578;50.938;13.556;2023-02-28T02:13:05;4.27;;;2.20;;
16922;SDS011;8578;50.938;13.556;2023-02-28T02:15:34;4.77;;;2.20;;
16922;SDS011;8578;50.938;13.556;2023-02-28T02:18:07;5.57;;;2.37;;
16922;SDS011;8578;50.938;13.556;2023-02-28T02:20:54;4.13;;;2.53;;
16922;SDS011;8578;50.938;13.556;2023-02-28T02:23:31;5.37;;;2.30;;
16922;SDS011;8578;50.938;13.556;2023-02-28T02:26:03;4.33;;;2.30;;
16922;SDS011;8578;50.938;13.556;2023-02-28T02:28:42;5.93;;;2.37;;
16922;SDS011;8578;50.938;13.556;2023-02-28T02:31:33;6.97;;;2.33;;
16922;SDS011;8578;50.938;13.556;2023-02-28T02:34:17;3.77;;;2.43;;
16922;SDS011;8578;50.938;13.556;2023-02-28T02:36:48;4.53;;;2.57;;
16922;SDS011;8578;50.938;13.556;2023-02-28T02:39:21;5.40;;;2.20;;
16922;SDS011;8578;50.938;13.556;2023-02-28T02:41:51;5.57;;;2.60;;
16922;SDS011;8578;50.938;13.556;2023-02-28T02:44:20;5.30;;;2.70;;
16922;SDS011;8578;50.938;13.556;2023-02-28T02:46:50;5.17;;;2.33;;
16922;SDS011;8578;50.938;13.556;2023-02-28T02:49:21;5.00;;;3.10;;
16922;SDS011;8578;50.938;13.556;2023-02-28T02:51:50;5.03;;;2.70;;
16922;SDS011;8578;50.938;13.556;2023-02-28T02:54:20;4.43;;;2.53;;
16922;SDS011;8578;50.938;13.556;2023-02-28T02:56:49;6.20;;;2.67;;
16922;SDS011;8578;50.938;13.556;2023-02-28T02:59:18;5.17;;;3.00;;
16922;SDS011;8578;50.938;13.556;2023-02-28T03:01:48;5.60;;;3.13;;
16922;SDS011;8578;50.938;13.556;2023-02-28T03:04:18;6.43;;;2.73;;
16922;SDS011;8578;50.938;13.556;2023-02-28T03:06:47;4.10;;;2.90;;
16922;SDS011;8578;50.938;13.556;2023-02-28T03:09:15;5.17;;;2.80;;
16922;SDS011;8578;50.938;13.556;2023-02-28T03:11:44;5.50;;;3.00;;
16922;SDS011;8578;50.938;13.556;2023-02-28T03:16:59;4.20;;;2.73;;
16922;SDS011;8578;50.938;13.556;2023-02-28T03:19:33;6.30;;;3.10;;
16922;SDS011;8578;50.938;13.556;2023-02-28T03:22:07;5.63;;;3.13;;
16922;SDS011;8578;50.938;13.556;2023-02-28T03:24:40;6.37;;;3.10;;
16922;SDS011;8578;50.938;13.556;2023-02-28T03:27:09;5.97;;;3.10;;
16922;SDS011;8578;50.938;13.556;2023-02-28T03:29:39;7.10;;;3.30;;
16922;SDS011;8578;50.938;13.556;2023-02-28T03:32:11;5.67;;;3.10;;
16922;SDS011;8578;50.938;13.556;2023-02-28T03:34:45;6.20;;;3.43;;
16922;SDS011;8578;50.938;13.556;2023-02-28T03:37:16;7.67;;;3.43;;
16922;SDS011;8578;50.938;13.556;2023-02-28T03:39:45;5.17;;;3.20;;
16922;SDS011;8578;50.938;13.556;2023-02-28T03:42:15;5.90;;;3.27;;
16922;SDS011;8578;50.938;13.556;2023-02-28T03:44:44;6.00;;;3.00;;
16922;SDS011;8578;50.938;13.556;2023-02-28T03:47:13;8.87;;;3.50;;
16922;SDS011;8578;50.938;13.556;2023-02-28T03:49:42;5.20;;;3.00;;
16922;SDS011;8578;50.938;13.556;2023-02-28T03:52:12;5.10;;;3.53;;
16922;SDS011;8578;50.938;13.556;2023-02-28T03:54:41;6.47;;;3.30;;
16922;SDS011;8578;50.938;13.556;2023-02-28T03:57:10;8.17;;;3.80;;
16922;SDS011;8578;50.938;13.556;2023-02-28T03:59:41;7.27;;;3.40;;
16922;SDS011;8578;50.938;13.556;2023-02-28T04:02:09;7.03;;;3.63;;
16922;SDS011;8578;50.938;13.556;2023-02-28T04:04:37;6.57;;;3.37;;
16922;SDS011;8578;50.938;13.556;2023-02-28T04:07:07;6.63;;;3.80;;
16922;SDS011;8578;50.938;13.556;2023-02-28T04:09:35;7.20;;;3.73;;
16922;SDS011;8578;50.938;13.556;2023-02-28T04:12:04;5.93;;;2.87;;
16922;SDS011;8578;50.938;13.556;2023-02-28T04:14:31;5.63;;;3.30;;
16922;SDS011;8578;50.938;13.556;2023-02-28T04:16:59;7.83;;;3.17;;
16922;SDS011;8578;50.938;13.556;2023-02-28T04:19:27;6.40;;;3.30;;
16922;SDS011;8578;50.938;13.556;2023-02-28T04:21:54;10.23;;;4.27;;
16922;SDS011;8578;50.938;13.556;2023-02-28T04:24:22;6.30;;;3.17;;
16922;SDS011;8578;50.938;13.556;2023-02-28T04:26:51;5.50;;;3.47;;
16922;SDS011;8578;50.938;13.556;2023-02-28T04:29:21;6.03;;;2.93;;
16922;SDS011;8578;50.938;13.556;2023-02-28T04:31:49;4.73;;;3.07;;
16922;SDS011;8578;50.938;13.556;2023-02-28T04:34:17;7.93;;;3.90;;
16922;SDS011;8578;50.938;13.556;2023-02-28T04:36:45;9.93;;;4.70;;
16922;SDS011;8578;50.938;13.556;2023-02-28T04:39:34;8.73;;;4.77;;
16922;SDS011;8578;50.938;13.556;2023-02-28T04:42:02;9.47;;;4.03;;
16922;SDS011;8578;50.938;13.556;2023-02-28T04:44:30;8.87;;;4.43;;
16922;SDS011;8578;50.938;13.556;2023-02-28T04:46:58;10.03;;;4.63;;
16922;SDS011;8578;50.938;13.556;2023-02-28T04:49:26;9.37;;;4.10;;
16922;SDS011;8578;50.938;13.556;2023-02-28T04:51:53;8.23;;;4.17;;
16922;SDS011;8578;50.938;13.556;2023-02-28T04:54:22;9.47;;;3.73;;
16922;SDS011;8578;50.938;13.556;2023-02-28T04:56:49;4.80;;;3.00;;
16922;SDS011;8578;50.938;13.556;2023-02-28T04:59:16;8.17;;;3.17;;
16922;SDS011;8578;50.938;13.556;2023-02-28T05:01:47;6.37;;;3.13;;
16922;SDS011;8578;50.938;13.556;2023-02-28T05:04:15;5.97;;;2.97;;
16922;SDS011;8578;50.938;13.556;2023-02-28T05:06:42;4.37;;;2.70;;
16922;SDS011;8578;50.938;13.556;2023-02-28T05:09:10;8.77;;;3.00;;
16922;SDS011;8578;50.938;13.556;2023-02-28T05:11:38;8.57;;;3.20;;
16922;SDS011;8578;50.938;13.556;2023-02-28T05:14:07;6.57;;;3.10;;
16922;SDS011;8578;50.938;13.556;2023-02-28T05:16:36;5.33;;;2.90;;
16922;SDS011;8578;50.938;13.556;2023-02-28T05:19:05;6.47;;;2.90;;
16922;SDS011;8578;50.938;13.556;2023-02-28T05:21:33;7.43;;;3.93;;
16922;SDS011;8578;50.938;13.556;2023-02-28T05:24:01;9.20;;;4.50;;
16922;SDS011;8578;50.938;13.556;2023-02-28T05:26:29;10.63;;;4.93;;
16922;SDS011;8578;50.938;13.556;2023-02-28T05:28:57;11.63;;;4.60;;
16922;SDS011;8578;50.938;13.556;2023-02-28T05:31:24;11.00;;;4.60;;
16922;SDS011;8578;50.938;13.556;2023-02-28T05:33:52;11.97;;;5.33;;
16922;SDS011;8578;50.938;13.556;2023-02-28T05:36:21;28.60;;;5.57;;
16922;SDS011;8578;50.938;13.556;2023-02-28T05:38:49;25.60;;;6.37;;
16922;SDS011;8578;50.938;13.556;2023-02-28T05:41:17;69.67;;;6.57;;
16922;SDS011;8578;50.938;13.556;2023-02-28T05:43:46;92.87;;;8.10;;
16922;SDS011;8578;50.938;13.556;2023-02-28T05:46:14;50.17;;;7.47;;
16922;SDS011;8578;50.938;13.556;2023-02-28T05:48:43;22.47;;;5.73;;
16922;SDS011;8578;50.938;13.556;2023-02-28T05:51:13;44.83;;;7.13;;
16922;SDS011;8578;50.938;13.556;2023-02-28T05:53:41;12.73;;;6.10;;
16922;SDS011;8578;50.938;13.556;2023-02-28T05:56:09;13.27;;;5.63;;
16922;SDS011;8578;50.938;13.556;2023-02-28T05:58:36;21.17;;;8.23;;
16922;SDS011;8578;50.938;13.556;2023-02-28T06:01:19;26.80;;;8.50;;
16922;SDS011;8578;50.938;13.556;2023-02-28T06:03:46;33.87;;;10.53;;
16922;SDS011;8578;50.938;13.556;2023-02-28T06:06:14;29.70;;;10.27;;
16922;SDS011;8578;50.938;13.556;2023-02-28T06:08:43;23.20;;;7.53;;
16922;SDS011;8578;50.938;13.556;2023-02-28T06:11:12;28.03;;;8.93;;
16922;SDS011;8578;50.938;13.556;2023-02-28T06:13:39;35.07;;;8.87;;
16922;SDS011;8578;50.938;13.556;2023-02-28T06:16:08;29.43;;;8.50;;
16922;SDS011;8578;50.938;13.556;2023-02-28T06:18:36;34.40;;;8.73;;
16922;SDS011;8578;50.938;13.556;2023-02-28T06:21:04;45.90;;;10.47;;
16922;SDS011;8578;50.938;13.556;2023-02-28T06:23:32;30.57;;;9.60;;
16922;SDS011;8578;50.938;13.556;2023-02-28T06:26:00;63.63;;;10.20;;
16922;SDS011;8578;50.938;13.556;2023-02-28T06:28:28;59.30;;;11.07;;
16922;SDS011;8578;50.938;13.556;2023-02-28T06:30:56;39.53;;;7.77;;
16922;SDS011;8578;50.938;13.556;2023-02-28T06:33:23;32.10;;;7.87;;
16922;SDS011;8578;50.938;13.556;2023-02-28T06:35:51;24.90;;;7.33;;
16922;SDS011;8578;50.938;13.556;2023-02-28T06:38:18;49.10;;;7.17;;
16922;SDS011;8578;50.938;13.556;2023-02-28T06:40:52;16.43;;;5.90;;
16922;SDS011;8578;50.938;13.556;2023-02-28T06:43:21;17.53;;;6.70;;
16922;SDS011;8578;50.938;13.556;2023-02-28T06:45:49;13.50;;;6.93;;
16922;SDS011;8578;50.938;13.556;2023-02-28T06:48:16;27.87;;;6.50;;
16922;SDS011;8578;50.938;13.556;2023-02-28T06:50:45;23.33;;;7.27;;
16922;SDS011;8578;50.938;13.556;2023-02-28T06:53:13;13.70;;;5.03;;
16922;SDS011;8578;50.938;13.556;2023-02-28T06:55:40;20.90;;;5.10;;
16922;SDS011;8578;50.938;13.556;2023-02-28T06:58:08;23.77;;;6.00;;
16922;SDS011;8578;50.938;13.556;2023-02-28T07:00:42;24.50;;;7.53;;
16922;SDS011;8578;50.938;13.556;2023-02-28T07:03:10;26.03;;;8.60;;
16922;SDS011;8578;50.938;13.556;2023-02-28T07:05:38;15.13;;;6.70;;
16922;SDS011;8578;50.938;13.556;2023-02-28T07:08:05;36.20;;;6.30;;
16922;SDS011;8578;50.938;13.556;2023-02-28T07:10:33;18.83;;;5.67;;
16922;SDS011;8578;50.938;13.556;2023-02-28T07:13:01;73.37;;;7.30;;
16922;SDS011;8578;50.938;13.556;2023-02-28T07:15:28;24.97;;;6.03;;
16922;SDS011;8578;50.938;13.556;2023-02-28T07:17:57;23.33;;;5.87;;
16922;SDS011;8578;50.938;13.556;2023-02-28T07:20:25;60.53;;;7.27;;
16922;SDS011;8578;50.938;13.556;2023-02-28T07:22:52;28.43;;;6.63;;
16922;SDS011;8578;50.938;13.556;2023-02-28T07:25:22;16.80;;;5.40;;
16922;SDS011;8578;50.938;13.556;2023-02-28T07:27:50;20.50;;;5.37;;
16922;SDS011;8578;50.938;13.556;2023-02-28T07:30:17;17.43;;;5.70;;
16922;SDS011;8578;50.938;13.556;2023-02-28T07:32:45;12.27;;;5.03;;
16922;SDS011;8578;50.938;13.556;2023-02-28T07:35:14;11.33;;;5.70;;
16922;SDS011;8578;50.938;13.556;2023-02-28T07:37:42;13.50;;;5.53;;
16922;SDS011;8578;50.938;13.556;2023-02-28T07:40:10;16.13;;;6.57;;
16922;SDS011;8578;50.938;13.556;2023-02-28T07:42:38;14.30;;;6.30;;
16922;SDS011;8578;50.938;13.556;2023-02-28T07:45:08;10.80;;;5.20;;
16922;SDS011;8578;50.938;13.556;2023-02-28T07:47:38;13.60;;;5.87;;
16922;SDS011;8578;50.938;13.556;2023-02-28T07:50:05;10.43;;;5.27;;
16922;SDS011;8578;50.938;13.556;2023-02-28T07:52:34;11.00;;;4.80;;
16922;SDS011;8578;50.938;13.556;2023-02-28T07:55:03;14.23;;;5.63;;
16922;SDS011;8578;50.938;13.556;2023-02-28T07:57:31;14.17;;;6.83;;
16922;SDS011;8578;50.938;13.556;2023-02-28T07:59:59;14.30;;;6.37;;
16922;SDS011;8578;50.938;13.556;2023-02-28T08:02:36;14.70;;;6.17;;
16922;SDS011;8578;50.938;13.556;2023-02-28T08:05:04;13.83;;;6.53;;
16922;SDS011;8578;50.938;13.556;2023-02-28T08:07:32;14.97;;;7.90;;
16922;SDS011;8578;50.938;13.556;2023-02-28T08:10:01;14.43;;;7.53;;
16922;SDS011;8578;50.938;13.556;2023-02-28T08:12:29;17.43;;;8.40;;
16922;SDS011;8578;50.938;13.556;2023-02-28T08:14:57;20.27;;;9.10;;
16922;SDS011;8578;50.938;13.556;2023-02-28T08:17:24;21.67;;;8.77;;
16922;SDS011;8578;50.938;13.556;2023-02-28T08:19:52;17.50;;;9.20;;
16922;SDS011;8578;50.938;13.556;2023-02-28T08:22:19;19.63;;;9.93;;
16922;SDS011;8578;50.938;13.556;2023-02-28T08:24:47;15.90;;;8.83;;
16922;SDS011;8578;50.938;13.556;2023-02-28T08:27:16;15.03;;;8.23;;
16922;SDS011;8578;50.938;13.556;2023-02-28T08:29:44;20.57;;;7.47;;
16922;SDS011;8578;50.938;13.556;2023-02-28T08:32:11;20.07;;;8.23;;
16922;SDS011;8578;50.938;13.556;2023-02-28T08:34:54;17.67;;;7.97;;
16922;SDS011;8578;50.938;13.556;2023-02-28T08:37:22;18.93;;;8.43;;
16922;SDS011;8578;50.938;13.556;2023-02-28T08:39:50;20.63;;;9.13;;
16922;SDS011;8578;50.938;13.556;2023-02-28T08:42:22;24.40;;;9.93;;
16922;SDS011;8578;50.938;13.556;2023-02-28T08:44:50;18.07;;;8.73;;
16922;SDS011;8578;50.938;13.556;2023-02-28T08:47:17;18.07;;;8.17;;
16922;SDS011;8578;50.938;13.556;2023-02-28T08:49:45;16.60;;;7.67;;
16922;SDS011;8578;50.938;13.556;2023-02-28T08:52:12;14.83;;;6.87;;
16922;SDS011;8578;50.938;13.556;2023-02-28T08:54:40;15.40;;;7.50;;
16922;SDS011;8578;50.938;13.556;2023-02-28T08:57:07;12.70;;;5.97;;
16922;SDS011;8578;50.938;13.556;2023-02-28T08:59:36;14.33;;;6.87;;
16922;SDS011;8578;50.938;13.556;2023-02-28T09:02:03;13.93;;;7.10;;
16922;SDS011;8578;50.938;13.556;2023-02-28T09:04:31;13.90;;;6.30;;
16922;SDS011;8578;50.938;13.556;2023-02-28T09:06:58;11.83;;;6.10;;
16922;SDS011;8578;50.938;13.556;2023-02-28T09:09:26;13.90;;;6.50;;
16922;SDS011;8578;50.938;13.556;2023-02-28T09:11:54;14.77;;;5.70;;
16922;SDS011;8578;50.938;13.556;2023-02-28T09:14:22;15.63;;;6.47;;
16922;SDS011;8578;50.938;13.556;2023-02-28T09:16:51;11.33;;;6.07;;
16922;SDS011;8578;50.938;13.556;2023-02-28T09:19:19;12.30;;;6.70;;
16922;SDS011;8578;50.938;13.556;2023-02-28T09:21:46;13.50;;;6.30;;
16922;SDS011;8578;50.938;13.556;2023-02-28T09:24:13;12.47;;;6.67;;
16922;SDS011;8578;50.938;13.556;2023-02-28T09:26:41;15.90;;;6.23;;
16922;SDS011;8578;50.938;13.556;2023-02-28T09:29:28;14.83;;;5.93;;
16922;SDS011;8578;50.938;13.556;2023-02-28T09:31:57;10.60;;;6.07;;
16922;SDS011;8578;50.938;13.556;2023-02-28T09:34:25;12.13;;;5.63;;
16922;SDS011;8578;50.938;13.556;2023-02-28T09:36:52;12.43;;;6.20;;
16922;SDS011;8578;50.938;13.556;2023-02-28T09:39:21;12.63;;;6.03;;
16922;SDS011;8578;50.938;13.556;2023-02-28T09:41:49;10.27;;;5.10;;
16922;SDS011;8578;50.938;13.556;2023-02-28T09:44:19;11.73;;;5.73;;
16922;SDS011;8578;50.938;13.556;2023-02-28T09:46:48;26.47;;;14.87;;
16922;SDS011;8578;50.938;13.556;2023-02-28T09:49:21;12.60;;;6.30;;
16922;SDS011;8578;50.938;13.556;2023-02-28T09:51:51;10.87;;;5.80;;
16922;SDS011;8578;50.938;13.556;2023-02-28T09:54:20;10.23;;;5.10;;
16922;SDS011;8578;50.938;13.556;2023-02-28T09:56:49;11.97;;;5.13;;
16922;SDS011;8578;50.938;13.556;2023-02-28T09:59:24;10.33;;;5.20;;
16922;SDS011;8578;50.938;13.556;2023-02-28T10:01:57;10.17;;;5.17;;
16922;SDS011;8578;50.938;13.556;2023-02-28T10:04:35;9.27;;;4.90;;
16922;SDS011;8578;50.938;13.556;2023-02-28T10:07:05;8.77;;;4.10;;
16922;SDS011;8578;50.938;13.556;2023-02-28T10:09:43;11.07;;;5.07;;
16922;SDS011;8578;50.938;13.556;2023-02-28T10:12:12;10.33;;;4.57;;
16922;SDS011;8578;50.938;13.556;2023-02-28T10:14:40;9.13;;;4.20;;
16922;SDS011;8578;50.938;13.556;2023-02-28T10:17:12;9.70;;;4.70;;
16922;SDS011;8578;50.938;13.556;2023-02-28T10:19:42;9.20;;;4.47;;
16922;SDS011;8578;50.938;13.556;2023-02-28T10:22:11;8.17;;;4.27;;
16922;SDS011;8578;50.938;13.556;2023-02-28T10:24:40;9.07;;;4.47;;
16922;SDS011;8578;50.938;13.556;2023-02-28T10:27:12;10.53;;;4.43;;
16922;SDS011;8578;50.938;13.556;2023-02-28T10:29:40;9.33;;;4.77;;
16922;SDS011;8578;50.938;13.556;2023-02-28T10:32:09;8.13;;;4.37;;
16922;SDS011;8578;50.938;13.556;2023-02-28T10:34:38;9.37;;;4.57;;
16922;SDS011;8578;50.938;13.556;2023-02-28T10:37:07;9.83;;;4.83;;
16922;SDS011;8578;50.938;13.556;2023-02-28T10:39:37;11.43;;;4.90;;
16922;SDS011;8578;50.938;13.556;2023-02-28T10:42:05;10.80;;;5.07;;
16922;SDS011;8578;50.938;13.556;2023-02-28T10:44:45;11.57;;;5.53;;
16922;SDS011;8578;50.938;13.556;2023-02-28T10:47:13;15.13;;;4.57;;
16922;SDS011;8578;50.938;13.556;2023-02-28T10:49:45;8.97;;;3.80;;
16922;SDS011;8578;50.938;13.556;2023-02-28T10:52:14;10.07;;;5.23;;
16922;SDS011;8578;50.938;13.556;2023-02-28T10:55:13;12.80;;;4.93;;
16922;SDS011;8578;50.938;13.556;2023-02-28T10:57:41;10.00;;;5.33;;
16922;SDS011;8578;50.938;13.556;2023-02-28T11:00:12;10.80;;;5.33;;
16922;SDS011;8578;50.938;13.556;2023-02-28T11:02:40;13.63;;;5.13;;
16922;SDS011;8578;50.938;13.556;2023-02-28T11:05:28;9.33;;;5.03;;
16922;SDS011;8578;50.938;13.556;2023-02-28T11:07:59;12.67;;;5.67;;
16922;SDS011;8578;50.938;13.556;2023-02-28T11:10:30;11.93;;;5.47;;
16922;SDS011;8578;50.938;13.556;2023-02-28T11:13:01;7.93;;;4.53;;
16922;SDS011;8578;50.938;13.556;2023-02-28T11:15:30;10.03;;;5.10;;
16922;SDS011;8578;50.938;13.556;2023-02-28T11:18:00;7.93;;;4.63;;
16922;SDS011;8578;50.938;13.556;2023-02-28T11:20:28;9.90;;;5.63;;
16922;SDS011;8578;50.938;13.556;2023-02-28T11:22:58;8.33;;;4.80;;
16922;SDS011;8578;50.938;13.556;2023-02-28T11:25:28;12.60;;;5.53;;
16922;SDS011;8578;50.938;13.556;2023-02-28T11:27:57;9.87;;;5.33;;
16922;SDS011;8578;50.938;13.556;2023-02-28T11:30:32;11.00;;;5.20;;
16922;SDS011;8578;50.938;13.556;2023-02-28T11:33:00;11.30;;;5.53;;
16922;SDS011;8578;50.938;13.556;2023-02-28T11:35:28;11.83;;;5.63;;
16922;SDS011;8578;50.938;13.556;2023-02-28T11:37:58;10.63;;;6.03;;
16922;SDS011;8578;50.938;13.556;2023-02-28T11:40:28;10.20;;;5.50;;
16922;SDS011;8578;50.938;13.556;2023-02-28T11:42:59;11.83;;;6.00;;
16922;SDS011;8578;50.938;13.556;2023-02-28T11:45:34;8.53;;;5.00;;
16922;SDS011;8578;50.938;13.556;2023-02-28T11:48:04;9.07;;;5.60;;
16922;SDS011;8578;50.938;13.556;2023-02-28T11:50:39;10.60;;;6.10;;
16922;SDS011;8578;50.938;13.556;2023-02-28T11:53:14;11.97;;;5.70;;
16922;SDS011;8578;50.938;13.556;2023-02-28T11:55:44;10.70;;;5.70;;
16922;SDS011;8578;50.938;13.556;2023-02-28T11:58:15;12.77;;;6.40;;
16922;SDS011;8578;50.938;13.556;2023-02-28T12:03:35;13.27;;;5.70;;
16922;SDS011;8578;50.938;13.556;2023-02-28T12:06:09;10.57;;;5.43;;
16922;SDS011;8578;50.938;13.556;2023-02-28T12:08:44;9.97;;;4.83;;
16922;SDS011;8578;50.938;13.556;2023-02-28T12:11:16;11.47;;;5.47;;
16922;SDS011;8578;50.938;13.556;2023-02-28T12:13:48;11.83;;;6.00;;
16922;SDS011;8578;50.938;13.556;2023-02-28T12:19:11;13.00;;;5.93;;
16922;SDS011;8578;50.938;13.556;2023-02-28T12:21:44;9.70;;;5.80;;
16922;SDS011;8578;50.938;13.556;2023-02-28T12:24:24;14.80;;;6.60;;
16922;SDS011;8578;50.938;13.556;2023-02-28T12:26:54;13.77;;;6.17;;
16922;SDS011;8578;50.938;13.556;2023-02-28T12:29:23;11.63;;;5.80;;
16922;SDS011;8578;50.938;13.556;2023-02-28T12:31:53;9.07;;;5.00;;
16922;SDS011;8578;50.938;13.556;2023-02-28T12:34:25;9.07;;;5.57;;
16922;SDS011;8578;50.938;13.556;2023-02-28T12:36:55;9.73;;;5.33;;
16922;SDS011;8578;50.938;13.556;2023-02-28T12:39:25;8.63;;;4.87;;
16922;SDS011;8578;50.938;13.556;2023-02-28T12:41:55;10.53;;;5.13;;
16922;SDS011;8578;50.938;13.556;2023-02-28T12:44:26;9.60;;;4.40;;
16922;SDS011;8578;50.938;13.556;2023-02-28T12:46:56;9.87;;;4.73;;
16922;SDS011;8578;50.938;13.556;2023-02-28T12:49:25;10.50;;;4.83;;
16922;SDS011;8578;50.938;13.556;2023-02-28T12:51:56;7.97;;;4.37;;
16922;SDS011;8578;50.938;13.556;2023-02-28T12:54:28;9.10;;;5.10;;
16922;SDS011;8578;50.938;13.556;2023-02-28T12:56:59;8.57;;;4.53;;
16922;SDS011;8578;50.938;13.556;2023-02-28T12:59:32;9.20;;;4.73;;
16922;SDS011;8578;50.938;13.556;2023-02-28T13:04:47;9.17;;;4.70;;
16922;SDS011;8578;50.938;13.556;2023-02-28T13:07:29;8.70;;;4.23;;
16922;SDS011;8578;50.938;13.556;2023-02-28T13:10:00;9.67;;;4.97;;
16922;SDS011;8578;50.938;13.556;2023-02-28T13:12:30;6.83;;;4.30;;
16922;SDS011;8578;50.938;13.556;2023-02-28T13:15:02;11.07;;;4.33;;
16922;SDS011;8578;50.938;13.556;2023-02-28T13:17:32;9.17;;;4.10;;
16922;SDS011;8578;50.938;13.556;2023-02-28T13:20:00;6.93;;;4.47;;
16922;SDS011;8578;50.938;13.556;2023-02-28T13:22:37;10.30;;;5.37;;
16922;SDS011;8578;50.938;13.556;2023-02-28T13:27:49;6.50;;;3.97;;
16922;SDS011;8578;50.938;13.556;2023-02-28T13:33:21;9.33;;;5.43;;
16922;SDS011;8578;50.938;13.556;2023-02-28T13:36:01;12.07;;;5.53;;
16922;SDS011;8578;50.938;13.556;2023-02-28T13:38:34;8.80;;;4.90;;
16922;SDS011;8578;50.938;13.556;2023-02-28T13:44:03;8.53;;;4.63;;
16922;SDS011;8578;50.938;13.556;2023-02-28T13:46:32;8.90;;;4.83;;
16922;SDS011;8578;50.938;13.556;2023-02-28T13:49:19;11.43;;;5.07;;
16922;SDS011;8578;50.938;13.556;2023-02-28T13:51:48;10.43;;;5.77;;
16922;SDS011;8578;50.938;13.556;2023-02-28T13:54:31;8.87;;;5.10;;
16922;SDS011;8578;50.938;13.556;2023-02-28T13:57:06;10.47;;;5.17;;
16922;SDS011;8578;50.938;13.556;2023-02-28T13:59:40;6.37;;;4.53;;
16922;SDS011;8578;50.938;13.556;2023-02-28T14:02:26;9.67;;;5.43;;
16922;SDS011;8578;50.938;13.556;2023-02-28T14:05:01;9.83;;;5.20;;
16922;SDS011;8578;50.938;13.556;2023-02-28T14:07:30;12.27;;;5.73;;
16922;SDS011;8578;50.938;13.556;2023-02-28T14:10:02;12.90;;;5.70;;
16922;SDS011;8578;50.938;13.556;2023-02-28T14:18:24;13.30;;;8.73;;
16922;SDS011;8578;50.938;13.556;2023-02-28T14:20:54;11.93;;;5.60;;
16922;SDS011;8578;50.938;13.556;2023-02-28T14:23:29;8.53;;;5.50;;
16922;SDS011;8578;50.938;13.556;2023-02-28T14:26:01;12.23;;;5.73;;
16922;SDS011;8578;50.938;13.556;2023-02-28T14:28:39;11.10;;;5.87;;
16922;SDS011;8578;50.938;13.556;2023-02-28T14:31:10;11.90;;;6.73;;
16922;SDS011;8578;50.938;13.556;2023-02-28T14:33:45;13.77;;;6.63;;
16922;SDS011;8578;50.938;13.556;2023-02-28T14:36:16;11.83;;;6.63;;
16922;SDS011;8578;50.938;13.556;2023-02-28T14:38:45;11.87;;;6.37;;
16922;SDS011;8578;50.938;13.556;2023-02-28T14:41:15;15.33;;;7.63;;
16922;SDS011;8578;50.938;13.556;2023-02-28T14:43:48;11.77;;;7.00;;
16922;SDS011;8578;50.938;13.556;2023-02-28T14:46:15;13.63;;;7.33;;
16922;SDS011;8578;50.938;13.556;2023-02-28T14:48:46;13.87;;;7.13;;
16922;SDS011;8578;50.938;13.556;2023-02-28T14:51:17;13.73;;;6.83;;
16922;SDS011;8578;50.938;13.556;2023-02-28T14:53:45;15.40;;;7.73;;
16922;SDS011;8578;50.938;13.556;2023-02-28T14:56:22;13.17;;;6.87;;
16922;SDS011;8578;50.938;13.556;2023-02-28T14:58:51;11.57;;;6.90;;
16922;SDS011;8578;50.938;13.556;2023-02-28T15:01:21;11.37;;;6.73;;
16922;SDS011;8578;50.938;13.556;2023-02-28T15:03:58;11.30;;;6.97;;
16922;SDS011;8578;50.938;13.556;2023-02-28T15:06:25;12.77;;;6.97;;
16922;SDS011;8578;50.938;13.556;2023-02-28T15:09:13;11.50;;;6.87;;
16922;SDS011;8578;50.938;13.556;2023-02-28T15:11:41;14.27;;;9.30;;
16922;SDS011;8578;50.938;13.556;2023-02-28T15:14:17;13.47;;;7.00;;
16922;SDS011;8578;50.938;13.556;2023-02-28T15:16:46;14.37;;;7.67;;
16922;SDS011;8578;50.938;13.556;2023-02-28T15:19:18;18.07;;;8.67;;
16922;SDS011;8578;50.938;13.556;2023-02-28T15:21:48;22.97;;;10.13;;
16922;SDS011;8578;50.938;13.556;2023-02-28T15:24:17;22.07;;;11.33;;